Airfield :
LOGIN :

Register | Disclaimer

   EN    FR    IT 

 










Legend :    VFR   Marginal VFR   IFR   Intensive IFR   Very Intensive IFR
Visi :
Ceiling :
>= 8 km
>= 3000ft
5 to 8 km
1000 to 3000 ft
1500m to 5 km
500 to 1000 ft
800 to 1500m
200 to 500 ft
< 800m
< 200 ft
Symbols :   Thunderstorms  Fog  Heavy snow  Heavy precipitations  Wind > 20 kt
SIGMETs :     Misc.  Thunderstorms  Icing  Turbulence  Mountain Waves  Volcanic Ashes






- Airport Elevation : 751 ft
- IATA code : ENC


LFSN - Nancy Essey

CURRENT METAR :
  • 130900Z AUTO 25004KT 180V330 9999 SCT029/// BKN034/// BKN047/// ///TCU 18/12 Q1015

EXPIRED METARs :
  • 130830Z AUTO 29005KT 240V320 9999 BKN026 OVC094 17/12 Q1015
  • 130800Z AUTO 24005KT 190V310 9999 FEW024 SCT047 OVC094 17/12 Q1015
  • 130730Z AUTO 27005KT 230V320 9999 FEW022 BKN027 BKN032 17/11 Q1015
  • 130700Z AUTO 25006KT 200V280 9999 SCT015 BKN026 BKN031 16/12 Q1015
  • 130630Z AUTO 28005KT 230V330 9999 SCT013 BKN032 16/13 Q1015
  • 130600Z AUTO 27005KT 230V310 9999 SCT013 OVC034 15/13 Q1015
  • 130530Z AUTO 28004KT 220V310 9999 FEW014 OVC034 15/12 Q1015
  • 130500Z AUTO 23003KT 200V270 9999 FEW013 OVC035 15/12 Q1015
  • 130430Z AUTO VRB03KT 9999 FEW014 BKN036 14/13 Q1014

Expired Forecast.



MET'MAP, your aeronautical weather chart ! - Copyright ORBIFLY December 2007 - Disclaimer

ORBIFLY MET'MAP TEAM :

Programming & Development : Alexandra Zaïnal
Original concept : Baudouin d'Aumeries
Technical & hardware support : Manuel Goepfert
Assistance : Marc-Olivier Méhu




SOURCES & CREDITS :

   NOAA